createdAt,value
2023-02-16T00:01:58.740Z,2.90
2023-02-16T00:08:15.315Z,3.20
2023-02-16T00:11:03.875Z,2.80
2023-02-16T00:13:44.617Z,4.00
2023-02-16T00:16:20.321Z,3.30
2023-02-16T00:18:48.782Z,3.50
2023-02-16T00:21:17.001Z,3.80
2023-02-16T00:23:45.530Z,3.10
2023-02-16T00:26:24.249Z,3.50
2023-02-16T00:28:53.369Z,3.70
2023-02-16T00:31:27.489Z,3.80
2023-02-16T00:33:56.604Z,3.30
2023-02-16T00:36:26.256Z,3.80
2023-02-16T00:38:54.458Z,3.50
2023-02-16T00:41:42.199Z,3.30
2023-02-16T00:44:18.907Z,3.50
2023-02-16T00:46:51.507Z,3.60
2023-02-16T00:49:21.028Z,3.30
2023-02-16T00:51:49.787Z,3.20
2023-02-16T00:54:18.329Z,5.00
2023-02-16T00:56:46.779Z,3.70
2023-02-16T00:59:17.369Z,3.30
2023-02-16T01:01:45.912Z,3.60
2023-02-16T01:04:19.781Z,3.90
2023-02-16T01:07:06.580Z,3.60
2023-02-16T01:09:55.456Z,3.80
2023-02-16T01:12:24.080Z,3.90
2023-02-16T01:14:53.984Z,3.30
2023-02-16T01:17:24.456Z,3.20
2023-02-16T01:19:58.005Z,3.80
2023-02-16T01:22:26.890Z,8.50
2023-02-16T01:24:55.026Z,8.90
2023-02-16T01:27:23.967Z,12.10
2023-02-16T01:29:52.220Z,5.00
2023-02-16T01:32:20.807Z,4.00
2023-02-16T01:34:49.126Z,3.70
2023-02-16T01:37:17.357Z,3.60
2023-02-16T01:39:45.633Z,4.30
2023-02-16T01:42:37.556Z,4.50
2023-02-16T01:45:29.737Z,3.60
2023-02-16T01:48:06.703Z,3.90
2023-02-16T01:50:42.986Z,4.40
2023-02-16T01:53:22.650Z,5.70
2023-02-16T01:55:54.266Z,5.10
2023-02-16T01:58:56.647Z,4.00
2023-02-16T02:01:33.406Z,3.80
2023-02-16T02:04:20.184Z,3.60
2023-02-16T02:06:48.404Z,4.60
2023-02-16T02:09:22.414Z,4.20
2023-02-16T02:11:56.534Z,4.30
2023-02-16T02:14:35.692Z,4.40
2023-02-16T02:17:13.822Z,4.90
2023-02-16T02:19:53.173Z,4.10
2023-02-16T02:23:03.535Z,4.30
2023-02-16T02:25:44.235Z,3.70
2023-02-16T02:28:23.111Z,3.90
2023-02-16T02:31:01.474Z,4.00
2023-02-16T02:33:56.078Z,4.00
2023-02-16T02:36:40.628Z,3.70
2023-02-16T02:39:34.760Z,3.90
2023-02-16T02:42:05.354Z,3.60
2023-02-16T02:44:52.039Z,4.10
2023-02-16T02:47:20.463Z,3.90
2023-02-16T02:49:52.061Z,3.80
2023-02-16T02:52:21.318Z,3.90
2023-02-16T02:55:08.325Z,4.30
2023-02-16T02:57:58.709Z,3.90
2023-02-16T03:00:49.849Z,3.70
2023-02-16T03:03:27.824Z,3.70
2023-02-16T03:06:05.623Z,3.30
2023-02-16T03:08:36.267Z,3.00
2023-02-16T03:11:25.259Z,3.30
2023-02-16T03:14:05.543Z,3.80
2023-02-16T03:17:26.551Z,3.90
2023-02-16T03:20:14.740Z,3.60
2023-02-16T03:23:02.191Z,4.00
2023-02-16T03:25:51.182Z,3.90
2023-02-16T03:28:41.334Z,3.90
2023-02-16T03:31:11.305Z,4.10
2023-02-16T03:33:39.973Z,3.70
2023-02-16T03:36:08.331Z,3.50
2023-02-16T03:38:37.864Z,3.80
2023-02-16T03:41:06.529Z,3.70
2023-02-16T03:43:35.269Z,4.00
2023-02-16T03:46:03.682Z,4.30
2023-02-16T03:48:32.505Z,3.80
2023-02-16T03:51:00.826Z,4.00
2023-02-16T03:53:29.113Z,3.60
2023-02-16T03:55:57.667Z,4.20
2023-02-16T03:58:26.060Z,4.10
2023-02-16T04:00:55.133Z,4.10
2023-02-16T04:03:23.507Z,4.10
2023-02-16T04:05:51.917Z,3.50
2023-02-16T04:08:20.450Z,4.50
2023-02-16T04:10:52.714Z,4.30
2023-02-16T04:13:21.005Z,4.40
2023-02-16T04:15:49.219Z,4.30
2023-02-16T04:18:17.791Z,4.50
2023-02-16T04:20:46.021Z,4.80
2023-02-16T04:23:14.140Z,5.70
2023-02-16T04:25:42.396Z,8.50
2023-02-16T04:28:11.880Z,5.00
2023-02-16T04:30:40.999Z,5.40
2023-02-16T04:33:09.292Z,5.20
2023-02-16T04:35:38.564Z,4.60
2023-02-16T04:38:06.896Z,4.20
2023-02-16T04:40:37.248Z,4.90
2023-02-16T04:43:05.375Z,4.80
2023-02-16T04:45:34.227Z,4.80
2023-02-16T04:48:02.463Z,5.70
2023-02-16T04:50:31.782Z,6.10
2023-02-16T04:53:00.541Z,6.60
2023-02-16T04:55:29.920Z,7.60
2023-02-16T04:57:58.052Z,7.70
2023-02-16T05:00:26.352Z,8.30
2023-02-16T05:02:54.607Z,9.00
2023-02-16T05:05:22.992Z,8.30
2023-02-16T05:07:51.396Z,10.70
2023-02-16T05:10:20.507Z,10.80
2023-02-16T05:13:07.754Z,10.60
2023-02-16T05:15:36.265Z,10.30
2023-02-16T05:18:09.804Z,10.10
2023-02-16T05:20:56.543Z,9.40
2023-02-16T05:23:25.051Z,9.30
2023-02-16T05:25:53.165Z,9.30
2023-02-16T05:28:21.384Z,8.90
2023-02-16T05:30:49.621Z,9.50
2023-02-16T05:33:17.853Z,9.10
2023-02-16T05:35:46.125Z,8.70
2023-02-16T05:38:15.528Z,9.70
2023-02-16T05:40:44.205Z,10.10
2023-02-16T05:43:12.737Z,9.40
2023-02-16T05:45:42.283Z,9.30
2023-02-16T05:48:10.852Z,9.50
2023-02-16T05:50:39.533Z,10.10
2023-02-16T05:53:10.842Z,9.50
2023-02-16T05:55:39.346Z,9.60
2023-02-16T05:58:10.130Z,9.90
2023-02-16T06:00:38.625Z,9.00
2023-02-16T06:03:06.689Z,9.70
2023-02-16T06:05:35.438Z,11.30
2023-02-16T06:08:06.829Z,10.80
2023-02-16T06:10:38.623Z,9.60
2023-02-16T06:13:06.970Z,11.20
2023-02-16T06:15:36.908Z,11.10
2023-02-16T06:18:05.292Z,10.30
2023-02-16T06:20:34.454Z,11.60
2023-02-16T06:23:02.667Z,11.40
2023-02-16T06:25:32.216Z,12.50
2023-02-16T06:28:00.711Z,12.30
2023-02-16T06:30:29.496Z,13.00
2023-02-16T06:32:58.719Z,12.10
2023-02-16T06:35:26.898Z,12.10
2023-02-16T06:37:55.095Z,12.40
2023-02-16T06:40:23.731Z,14.20
2023-02-16T06:42:52.425Z,12.40
2023-02-16T06:45:20.746Z,14.00
2023-02-16T06:47:49.982Z,14.10
2023-02-16T06:50:19.202Z,13.10
2023-02-16T06:52:47.461Z,13.90
2023-02-16T06:55:15.915Z,13.70
2023-02-16T06:57:44.309Z,14.40
2023-02-16T07:00:13.093Z,13.80
2023-02-16T07:02:43.428Z,13.30
2023-02-16T07:05:11.574Z,14.10
2023-02-16T07:07:39.846Z,12.90
2023-02-16T07:10:09.729Z,13.90
2023-02-16T07:12:37.901Z,13.90
2023-02-16T07:15:06.553Z,14.70
2023-02-16T07:17:35.044Z,14.20
2023-02-16T07:20:05.435Z,13.90
2023-02-16T07:22:33.702Z,12.60
2023-02-16T07:25:01.954Z,13.70
2023-02-16T07:27:30.516Z,14.70
2023-02-16T07:29:58.748Z,12.20
2023-02-16T07:32:27.820Z,14.30
2023-02-16T07:34:56.058Z,13.80
2023-02-16T07:37:24.196Z,15.80
2023-02-16T07:39:53.384Z,15.10
2023-02-16T07:42:21.965Z,15.70
2023-02-16T07:44:52.853Z,17.10
2023-02-16T07:47:21.018Z,16.40
2023-02-16T07:49:49.257Z,15.50
2023-02-16T07:52:17.601Z,14.60
2023-02-16T07:54:46.764Z,14.60
2023-02-16T07:57:15.296Z,14.80
2023-02-16T07:59:43.683Z,14.40
2023-02-16T08:02:18.107Z,14.70
2023-02-16T08:04:47.462Z,14.70
2023-02-16T08:07:17.144Z,14.70
2023-02-16T08:09:45.464Z,14.20
2023-02-16T08:12:15.900Z,15.50
2023-02-16T08:14:44.808Z,15.30
2023-02-16T08:17:18.370Z,14.80
2023-02-16T08:19:47.461Z,15.90
2023-02-16T08:22:18.065Z,16.50
2023-02-16T08:24:48.557Z,17.60
2023-02-16T08:27:17.100Z,17.30
2023-02-16T08:29:45.833Z,17.10
2023-02-16T08:32:14.835Z,17.70
2023-02-16T08:35:00.940Z,18.00
2023-02-16T08:37:29.280Z,16.90
2023-02-16T08:40:00.880Z,17.70
2023-02-16T08:42:29.144Z,17.10
2023-02-16T08:44:58.803Z,16.00
2023-02-16T08:47:27.139Z,16.80
2023-02-16T08:49:56.193Z,16.10
2023-02-16T08:52:24.788Z,16.10
2023-02-16T08:54:53.103Z,14.70
2023-02-16T08:57:21.322Z,15.80
2023-02-16T09:00:09.474Z,14.80
2023-02-16T09:02:37.842Z,15.70
2023-02-16T09:05:06.681Z,15.20
2023-02-16T09:07:35.229Z,16.20
2023-02-16T09:10:06.867Z,15.50
2023-02-16T09:12:37.348Z,15.70
2023-02-16T09:15:05.972Z,15.60
2023-02-16T09:17:34.355Z,18.70
2023-02-16T09:20:02.502Z,17.90
2023-02-16T09:22:30.848Z,18.30
2023-02-16T09:25:00.684Z,17.40
2023-02-16T09:27:34.910Z,16.40
2023-02-16T09:30:04.070Z,16.60
2023-02-16T09:32:32.557Z,15.10
2023-02-16T09:35:00.834Z,14.90
2023-02-16T09:37:29.519Z,16.20
2023-02-16T09:39:57.695Z,14.20
2023-02-16T09:42:35.091Z,15.20
2023-02-16T09:45:11.612Z,15.80
2023-02-16T09:47:43.249Z,16.60
2023-02-16T09:50:27.778Z,15.80
2023-02-16T09:53:18.644Z,16.20
2023-02-16T09:55:51.440Z,16.80
2023-02-16T09:58:26.047Z,16.00
2023-02-16T10:00:54.354Z,15.30
2023-02-16T10:03:47.517Z,16.10
2023-02-16T10:06:48.601Z,15.90
2023-02-16T10:09:17.308Z,14.40
2023-02-16T10:11:58.602Z,13.80
2023-02-16T10:14:41.826Z,13.80
2023-02-16T10:17:20.750Z,12.10
2023-02-16T10:19:54.942Z,13.40
2023-02-16T10:22:47.504Z,12.40
2023-02-16T10:25:22.082Z,11.90
2023-02-16T10:28:00.429Z,11.00
2023-02-16T10:30:29.645Z,10.70
2023-02-16T10:33:00.286Z,10.80
2023-02-16T10:35:44.123Z,10.20
2023-02-16T10:38:33.998Z,10.50
2023-02-16T10:41:08.215Z,9.70
2023-02-16T10:43:42.172Z,10.30
2023-02-16T10:46:28.810Z,11.00
2023-02-16T10:48:57.007Z,11.10
2023-02-16T10:51:28.349Z,10.50
2023-02-16T10:57:06.241Z,10.20
2023-02-16T10:59:38.879Z,9.40
2023-02-16T11:02:26.528Z,10.20
2023-02-16T11:04:58.398Z,10.20
2023-02-16T11:07:28.501Z,10.90
2023-02-16T11:09:57.871Z,10.50
2023-02-16T11:12:39.198Z,11.80
2023-02-16T11:15:20.827Z,11.10
2023-02-16T11:18:05.020Z,10.70
2023-02-16T11:20:45.092Z,11.30
2023-02-16T11:23:35.798Z,11.30
2023-02-16T11:26:10.437Z,11.40
2023-02-16T11:28:46.172Z,11.70
2023-02-16T11:31:33.247Z,10.50
2023-02-16T11:34:04.892Z,12.00
2023-02-16T11:36:35.982Z,11.50
2023-02-16T11:39:06.010Z,10.90
2023-02-16T11:41:34.951Z,10.90
2023-02-16T11:44:03.265Z,11.50
2023-02-16T11:46:39.116Z,11.20
2023-02-16T11:49:27.461Z,10.20
2023-02-16T11:51:55.996Z,11.10
2023-02-16T11:54:24.220Z,11.00
2023-02-16T11:57:06.755Z,12.00
2023-02-16T11:59:36.722Z,10.20
2023-02-16T12:02:17.000Z,9.80
2023-02-16T12:04:57.947Z,9.70
2023-02-16T12:07:32.562Z,9.20
2023-02-16T12:10:19.467Z,9.70
2023-02-16T12:12:48.380Z,10.10
2023-02-16T12:15:28.990Z,9.20
2023-02-16T12:18:03.942Z,8.60
2023-02-16T12:20:56.427Z,9.60
2023-02-16T12:23:36.371Z,8.70
2023-02-16T12:26:31.763Z,8.30
2023-02-16T12:29:09.027Z,8.20
2023-02-16T12:31:59.210Z,9.40
2023-02-16T12:34:48.520Z,9.00
2023-02-16T12:37:40.598Z,8.60
2023-02-16T12:40:52.169Z,8.40
2023-02-16T12:43:37.917Z,9.10
2023-02-16T12:46:12.512Z,9.30
2023-02-16T12:48:45.927Z,9.10
2023-02-16T12:51:38.969Z,9.30
2023-02-16T12:54:20.991Z,9.50
2023-02-16T12:57:01.228Z,9.10
2023-02-16T12:59:38.565Z,8.70
2023-02-16T13:02:32.380Z,8.70
2023-02-16T13:05:10.309Z,8.70
2023-02-16T13:07:49.842Z,9.50
2023-02-16T13:10:49.769Z,9.60
2023-02-16T13:13:27.478Z,9.00
2023-02-16T13:16:17.464Z,9.40
2023-02-16T13:18:57.288Z,8.80
2023-02-16T13:21:54.914Z,8.40
2023-02-16T13:24:42.064Z,8.40
2023-02-16T13:27:58.438Z,8.80
2023-02-16T13:30:40.457Z,10.30
2023-02-16T13:33:37.590Z,9.80
2023-02-16T13:36:13.708Z,10.20
2023-02-16T13:39:02.152Z,9.00
2023-02-16T13:41:55.715Z,10.30
2023-02-16T13:44:44.960Z,9.30
2023-02-16T13:47:19.908Z,10.40
2023-02-16T13:49:50.506Z,10.20
2023-02-16T13:52:37.197Z,10.40
2023-02-16T13:55:27.553Z,9.90
2023-02-16T13:58:05.982Z,10.10
2023-02-16T14:00:38.439Z,10.50
2023-02-16T14:03:22.086Z,10.60
2023-02-16T14:05:56.475Z,10.10
2023-02-16T14:08:29.179Z,9.30
2023-02-16T14:11:03.969Z,10.40
2023-02-16T14:13:52.749Z,8.50
2023-02-16T14:16:26.691Z,9.60
2023-02-16T14:19:06.063Z,9.40
2023-02-16T14:21:44.815Z,9.70
2023-02-16T14:24:23.419Z,9.30
2023-02-16T14:27:09.501Z,9.60
2023-02-16T14:29:57.048Z,9.00
2023-02-16T14:32:29.873Z,10.30
2023-02-16T14:35:03.887Z,10.00
2023-02-16T14:37:45.585Z,9.60
2023-02-16T14:40:18.086Z,9.50
2023-02-16T14:42:51.538Z,8.90
2023-02-16T14:45:44.676Z,10.20
2023-02-16T14:48:35.948Z,8.10
2023-02-16T14:51:29.278Z,9.20
2023-02-16T14:54:22.479Z,9.80
2023-02-16T14:56:53.057Z,9.20
2023-02-16T14:59:45.879Z,9.20
2023-02-16T15:02:30.521Z,9.60
2023-02-16T15:04:58.754Z,9.40
2023-02-16T15:07:28.185Z,10.60
2023-02-16T15:09:57.612Z,10.10
2023-02-16T15:12:40.690Z,10.40
2023-02-16T15:15:10.380Z,10.20
2023-02-16T15:17:50.059Z,11.30
2023-02-16T15:20:34.385Z,11.70
2023-02-16T15:23:10.328Z,11.60
2023-02-16T15:25:39.584Z,10.00
2023-02-16T15:28:10.708Z,9.70
2023-02-16T15:31:01.565Z,10.80
2023-02-16T15:33:42.888Z,10.40
2023-02-16T15:36:13.653Z,10.20
2023-02-16T15:38:43.455Z,9.60
2023-02-16T15:41:15.812Z,10.20
2023-02-16T15:43:45.103Z,10.00
2023-02-16T15:46:33.528Z,10.10
2023-02-16T15:49:26.022Z,9.70
2023-02-16T15:51:54.704Z,9.50
2023-02-16T15:54:29.461Z,10.30
2023-02-16T15:56:59.433Z,10.90
2023-02-16T15:59:35.822Z,10.00
2023-02-16T16:02:09.088Z,10.20
2023-02-16T16:04:59.066Z,8.50
2023-02-16T16:07:32.083Z,10.20
2023-02-16T16:10:00.225Z,11.00
2023-02-16T16:12:28.415Z,10.60
2023-02-16T16:14:57.267Z,9.80
2023-02-16T16:17:32.476Z,9.80
2023-02-16T16:20:34.068Z,10.20
2023-02-16T16:23:14.696Z,9.40
2023-02-16T16:25:46.950Z,10.20
2023-02-16T16:28:33.480Z,11.20
2023-02-16T16:31:08.628Z,11.20
2023-02-16T16:33:52.841Z,12.20
2023-02-16T16:36:22.112Z,23.90
2023-02-16T16:38:50.525Z,29.90
2023-02-16T16:41:28.564Z,26.30
2023-02-16T16:43:56.750Z,26.20
2023-02-16T16:46:26.146Z,20.90
2023-02-16T16:49:00.345Z,14.60
2023-02-16T16:51:40.287Z,12.30
2023-02-16T16:54:29.941Z,11.00
2023-02-16T16:56:58.056Z,10.60
2023-02-16T16:59:26.261Z,10.00
2023-02-16T17:01:54.602Z,9.10
2023-02-16T17:04:22.883Z,11.40
2023-02-16T17:06:51.005Z,10.40
2023-02-16T17:09:19.232Z,11.60
2023-02-16T17:11:48.154Z,11.90
2023-02-16T17:14:17.959Z,11.10
2023-02-16T17:16:48.110Z,10.70
2023-02-16T17:19:17.473Z,11.80
2023-02-16T17:21:46.087Z,11.50
2023-02-16T17:24:14.606Z,12.50
2023-02-16T17:26:43.083Z,12.40
2023-02-16T17:29:11.547Z,11.90
2023-02-16T17:31:40.179Z,12.00
2023-02-16T17:34:08.970Z,10.80
2023-02-16T17:36:37.403Z,10.20
2023-02-16T17:39:08.920Z,11.10
2023-02-16T17:41:37.228Z,10.30
2023-02-16T17:44:05.563Z,11.30
2023-02-16T17:46:40.642Z,10.10
2023-02-16T17:49:10.552Z,10.90
2023-02-16T17:51:38.758Z,10.30
2023-02-16T17:54:08.865Z,10.70
2023-02-16T17:56:39.975Z,12.50
2023-02-16T17:59:08.956Z,12.20
2023-02-16T18:01:37.786Z,11.00
2023-02-16T18:04:07.438Z,11.70
2023-02-16T18:06:35.895Z,11.80
2023-02-16T18:09:04.615Z,12.20
2023-02-16T18:11:32.994Z,11.00
2023-02-16T18:14:01.875Z,12.70
2023-02-16T18:16:30.753Z,11.20
2023-02-16T18:18:59.581Z,10.90
2023-02-16T18:21:29.687Z,11.00
2023-02-16T18:23:58.058Z,12.20
2023-02-16T18:26:28.569Z,11.90
2023-02-16T18:28:56.705Z,11.20
2023-02-16T18:31:24.870Z,12.30
2023-02-16T18:33:53.029Z,11.60
2023-02-16T18:36:21.286Z,11.50
2023-02-16T18:38:49.715Z,12.90
2023-02-16T18:41:17.914Z,13.40
2023-02-16T18:43:48.110Z,12.70
2023-02-16T18:46:18.108Z,12.00
2023-02-16T18:48:47.128Z,12.50
2023-02-16T18:51:17.570Z,15.10
2023-02-16T18:53:46.321Z,13.60
2023-02-16T18:56:15.161Z,12.30
2023-02-16T18:58:43.761Z,12.40
2023-02-16T19:01:31.194Z,12.30
2023-02-16T19:04:03.105Z,12.20
2023-02-16T19:06:31.940Z,11.60
2023-02-16T19:09:00.602Z,12.40
2023-02-16T19:11:31.489Z,12.00
2023-02-16T19:13:59.823Z,11.90
2023-02-16T19:16:28.216Z,12.30
2023-02-16T19:18:56.466Z,12.10
2023-02-16T19:21:24.798Z,10.80
2023-02-16T19:23:53.319Z,11.60
2023-02-16T19:26:21.746Z,11.70
2023-02-16T19:28:50.115Z,12.80
2023-02-16T19:31:20.354Z,11.20
2023-02-16T19:33:49.048Z,13.10
2023-02-16T19:36:17.692Z,12.30
2023-02-16T19:38:46.429Z,11.30
2023-02-16T19:41:20.354Z,11.60
2023-02-16T19:43:48.746Z,11.40
2023-02-16T19:46:17.199Z,11.80
2023-02-16T19:48:48.702Z,11.30
2023-02-16T19:51:17.221Z,12.60
2023-02-16T19:53:45.929Z,11.60
2023-02-16T19:56:16.251Z,12.60
2023-02-16T19:58:44.932Z,13.50
2023-02-16T20:01:16.404Z,12.30
2023-02-16T20:03:45.464Z,11.90
2023-02-16T20:06:15.209Z,12.90
2023-02-16T20:08:45.027Z,12.60
2023-02-16T20:11:14.426Z,13.10
2023-02-16T20:13:42.759Z,11.80
2023-02-16T20:16:14.338Z,13.40
2023-02-16T20:18:43.162Z,14.00
2023-02-16T20:21:14.001Z,15.80
2023-02-16T20:23:42.559Z,16.10
2023-02-16T20:26:20.680Z,14.40
2023-02-16T20:28:49.256Z,15.80
2023-02-16T20:31:20.205Z,14.90
2023-02-16T20:33:49.731Z,17.90
2023-02-16T20:36:18.118Z,17.60
2023-02-16T20:38:46.480Z,17.40
2023-02-16T20:41:15.192Z,16.80
2023-02-16T20:43:44.704Z,18.70
2023-02-16T20:46:14.379Z,17.10
2023-02-16T20:48:45.111Z,17.10
2023-02-16T20:51:13.714Z,18.20
2023-02-16T20:53:43.148Z,19.20
2023-02-16T20:56:24.932Z,18.90
2023-02-16T20:58:57.062Z,18.60
2023-02-16T21:01:31.094Z,18.50
2023-02-16T21:04:00.070Z,18.70
2023-02-16T21:06:28.555Z,17.60
2023-02-16T21:08:57.182Z,16.90
2023-02-16T21:11:25.793Z,16.00
2023-02-16T21:13:54.086Z,15.70
2023-02-16T21:16:22.984Z,15.40
2023-02-16T21:18:51.558Z,13.90
2023-02-16T21:21:19.887Z,13.80
2023-02-16T21:23:53.643Z,14.00
2023-02-16T21:26:24.086Z,13.70
2023-02-16T21:28:52.343Z,12.70
2023-02-16T21:31:23.933Z,11.60
2023-02-16T21:33:52.630Z,11.90
2023-02-16T21:36:22.747Z,12.90
2023-02-16T21:38:51.949Z,12.90
2023-02-16T21:41:25.787Z,12.30
2023-02-16T21:43:56.312Z,13.50
2023-02-16T21:46:26.227Z,12.90
2023-02-16T21:48:55.943Z,12.70
2023-02-16T21:51:28.281Z,13.20
2023-02-16T21:53:59.210Z,13.90
2023-02-16T21:56:53.684Z,14.60
2023-02-16T21:59:22.799Z,14.10
2023-02-16T22:01:51.373Z,14.50
2023-02-16T22:04:21.873Z,13.60
2023-02-16T22:06:51.202Z,17.50
2023-02-16T22:09:21.371Z,15.40
2023-02-16T22:11:51.742Z,16.20
2023-02-16T22:14:20.287Z,13.90
2023-02-16T22:16:49.025Z,14.90
2023-02-16T22:19:17.931Z,14.00
2023-02-16T22:21:46.650Z,14.40
2023-02-16T22:24:16.051Z,13.00
2023-02-16T22:26:44.300Z,14.40
2023-02-16T22:29:12.540Z,13.80
2023-02-16T22:31:44.499Z,15.30
2023-02-16T22:34:18.502Z,14.20
2023-02-16T22:36:47.562Z,14.60
2023-02-16T22:39:16.438Z,13.90
2023-02-16T22:41:45.125Z,13.50
2023-02-16T22:44:13.221Z,14.20
2023-02-16T22:46:43.162Z,13.70
2023-02-16T22:49:15.330Z,14.10
2023-02-16T22:51:43.554Z,12.60
2023-02-16T22:54:14.371Z,14.20
2023-02-16T22:56:45.847Z,13.10
2023-02-16T22:59:13.941Z,14.90
2023-02-16T23:01:42.182Z,14.60
2023-02-16T23:04:14.710Z,14.00
2023-02-16T23:06:45.172Z,15.90
2023-02-16T23:09:20.054Z,16.90
2023-02-16T23:11:49.190Z,17.50
2023-02-16T23:14:18.213Z,18.40
2023-02-16T23:16:50.732Z,19.20
2023-02-16T23:19:25.443Z,20.40
2023-02-16T23:21:54.086Z,21.60
2023-02-16T23:24:23.061Z,21.20
2023-02-16T23:26:52.226Z,21.20
2023-02-16T23:29:20.476Z,20.80
2023-02-16T23:31:49.280Z,23.80
2023-02-16T23:34:17.773Z,25.40
2023-02-16T23:36:49.017Z,24.80
2023-02-16T23:39:17.890Z,26.40
2023-02-16T23:41:46.625Z,26.10
2023-02-16T23:44:14.931Z,24.80
2023-02-16T23:46:43.320Z,27.50
2023-02-16T23:49:11.443Z,26.70
2023-02-16T23:51:39.741Z,26.30
2023-02-16T23:54:11.120Z,25.70
2023-02-16T23:56:39.564Z,24.80
2023-02-16T23:59:07.615Z,23.90
